createdAt,value
2018-12-13T00:00:42.849Z,3.78
2018-12-13T00:03:10.483Z,3.78
2018-12-13T00:05:38.121Z,3.81
2018-12-13T00:08:06.859Z,3.83
2018-12-13T00:10:34.497Z,3.84
2018-12-13T00:13:02.102Z,3.87
2018-12-13T00:15:32.933Z,3.90
2018-12-13T00:18:02.550Z,3.91
2018-12-13T00:20:30.307Z,3.92
2018-12-13T00:22:57.946Z,3.93
2018-12-13T00:25:25.878Z,3.93
2018-12-13T00:27:54.497Z,3.95
2018-12-13T00:30:24.087Z,3.96
2018-12-13T00:32:52.284Z,3.99
2018-12-13T00:35:20.340Z,4.00
2018-12-13T00:37:48.793Z,4.00
2018-12-13T00:40:17.317Z,4.00
2018-12-13T00:42:46.213Z,4.00
2018-12-13T00:45:14.169Z,4.00
2018-12-13T00:47:44.768Z,4.00
2018-12-13T00:50:15.306Z,4.01
2018-12-13T00:52:43.264Z,4.01
2018-12-13T00:55:11.918Z,4.01
2018-12-13T00:57:39.501Z,4.02
2018-12-13T01:00:07.647Z,4.01
2018-12-13T01:02:35.294Z,3.99
2018-12-13T01:05:02.981Z,3.94
2018-12-13T01:07:30.626Z,3.90
2018-12-13T01:09:58.532Z,3.83
2018-12-13T01:12:26.142Z,3.74
2018-12-13T01:14:54.781Z,3.64
2018-12-13T01:17:22.370Z,3.55
2018-12-13T01:19:50.413Z,3.50
2018-12-13T01:22:19.656Z,3.47
2018-12-13T01:24:49.653Z,3.40
2018-12-13T01:27:17.550Z,3.31
2018-12-13T01:29:45.300Z,3.19
2018-12-13T01:32:13.653Z,3.08
2018-12-13T01:34:41.769Z,3.01
2018-12-13T01:37:09.409Z,2.96
2018-12-13T01:39:37.018Z,2.94
2018-12-13T01:42:05.025Z,2.93
2018-12-13T01:44:33.219Z,2.91
2018-12-13T01:47:02.065Z,2.90
2018-12-13T01:49:31.297Z,2.86
2018-12-13T01:51:58.871Z,2.81
2018-12-13T01:54:26.432Z,2.73
2018-12-13T01:56:55.001Z,2.64
2018-12-13T01:59:22.600Z,2.56
2018-12-13T02:01:54.864Z,2.53
2018-12-13T02:04:24.734Z,2.47
2018-12-13T02:06:58.525Z,2.42
2018-12-13T02:09:22.773Z,2.40
2018-12-13T02:11:50.636Z,2.36
2018-12-13T02:14:18.646Z,2.36
2018-12-13T02:16:46.228Z,2.36
2018-12-13T02:19:14.441Z,2.37
2018-12-13T02:21:44.444Z,2.36
2018-12-13T02:24:12.649Z,2.35
2018-12-13T02:26:41.269Z,2.31
2018-12-13T02:29:10.054Z,2.23
2018-12-13T02:31:39.189Z,2.19
2018-12-13T02:34:07.958Z,2.14
2018-12-13T02:36:35.527Z,2.12
2018-12-13T02:39:04.344Z,2.11
2018-12-13T02:41:33.051Z,2.07
2018-12-13T02:44:00.657Z,2.05
2018-12-13T02:46:29.252Z,2.03
2018-12-13T02:48:58.073Z,2.01
2018-12-13T02:51:25.717Z,1.99
2018-12-13T02:53:53.412Z,1.96
2018-12-13T02:56:21.486Z,1.95
2018-12-13T02:58:49.107Z,1.92
2018-12-13T03:01:16.689Z,1.87
2018-12-13T03:03:44.670Z,1.87
2018-12-13T03:06:12.242Z,1.85
2018-12-13T03:08:39.845Z,1.83
2018-12-13T03:11:07.607Z,1.82
2018-12-13T03:13:37.319Z,1.80
2018-12-13T03:16:05.904Z,1.79
2018-12-13T03:18:33.496Z,1.77
2018-12-13T03:21:04.858Z,1.75
2018-12-13T03:23:32.449Z,1.75
2018-12-13T03:26:01.088Z,1.79
2018-12-13T03:28:28.713Z,1.85
2018-12-13T03:30:56.402Z,1.94
2018-12-13T03:33:24.055Z,1.99
2018-12-13T03:35:51.686Z,2.02
2018-12-13T03:38:19.637Z,2.06
2018-12-13T03:40:49.344Z,2.08
2018-12-13T03:43:17.673Z,2.10
2018-12-13T03:45:45.649Z,2.09
2018-12-13T03:48:13.234Z,2.11
2018-12-13T03:50:40.833Z,2.14
2018-12-13T03:53:08.459Z,2.15
2018-12-13T03:55:36.564Z,2.13
2018-12-13T03:58:04.132Z,2.09
2018-12-13T04:00:31.648Z,2.03
2018-12-13T04:02:59.166Z,1.97
2018-12-13T04:05:27.136Z,1.92
2018-12-13T04:07:54.643Z,1.87
2018-12-13T04:10:22.152Z,1.82
2018-12-13T04:12:50.034Z,1.76
2018-12-13T04:15:17.612Z,1.73
2018-12-13T04:17:45.189Z,1.68
2018-12-13T04:20:12.738Z,1.62
2018-12-13T04:22:40.553Z,1.58
2018-12-13T04:25:08.066Z,1.54
2018-12-13T04:27:35.604Z,1.52
2018-12-13T04:30:03.532Z,1.49
2018-12-13T04:32:32.359Z,1.48
2018-12-13T04:34:59.868Z,1.45
2018-12-13T04:37:35.146Z,1.41
2018-12-13T04:39:57.377Z,1.38
2018-12-13T04:42:24.878Z,1.36
2018-12-13T04:44:52.412Z,1.33
2018-12-13T04:47:20.386Z,1.33
2018-12-13T04:49:47.929Z,1.32
2018-12-13T04:52:15.477Z,1.29
2018-12-13T04:54:43.348Z,1.27
2018-12-13T04:57:10.909Z,1.25
2018-12-13T04:59:38.461Z,1.24
2018-12-13T05:02:06.019Z,1.23
2018-12-13T05:04:33.984Z,1.19
2018-12-13T05:07:01.535Z,1.16
2018-12-13T05:09:29.097Z,1.13
2018-12-13T05:11:56.667Z,1.08
2018-12-13T05:14:24.638Z,1.04
2018-12-13T05:16:55.905Z,1.02
2018-12-13T05:19:23.416Z,1.02
2018-12-13T05:21:50.951Z,0.97
2018-12-13T05:24:19.041Z,0.96
2018-12-13T05:26:46.603Z,0.93
2018-12-13T05:29:14.224Z,0.95
2018-12-13T05:31:42.131Z,0.97
2018-12-13T05:34:09.637Z,1.00
2018-12-13T05:36:37.278Z,0.97
2018-12-13T05:39:05.507Z,0.95
2018-12-13T05:41:33.045Z,0.93
2018-12-13T05:44:00.557Z,0.89
2018-12-13T05:46:28.493Z,0.88
2018-12-13T05:48:55.989Z,0.85
2018-12-13T05:51:23.520Z,0.82
2018-12-13T05:53:51.525Z,0.81
2018-12-13T05:56:19.037Z,0.78
2018-12-13T05:58:46.913Z,0.73
2018-12-13T06:01:14.911Z,0.70
2018-12-13T06:03:42.417Z,0.64
2018-12-13T06:06:09.937Z,0.55
2018-12-13T06:08:38.698Z,0.50
2018-12-13T06:11:06.554Z,0.44
2018-12-13T06:13:35.034Z,0.38
2018-12-13T06:16:02.961Z,0.36
2018-12-13T06:18:30.517Z,0.36
2018-12-13T06:20:58.021Z,0.34
2018-12-13T06:23:26.845Z,0.33
2018-12-13T06:25:54.382Z,0.32
2018-12-13T06:28:21.935Z,0.35
2018-12-13T06:30:49.437Z,0.37
2018-12-13T06:33:16.970Z,0.40
2018-12-13T06:35:44.876Z,0.41
2018-12-13T06:38:13.409Z,0.43
2018-12-13T06:40:41.062Z,0.43
2018-12-13T06:43:08.973Z,0.43
2018-12-13T06:45:37.110Z,0.42
2018-12-13T06:48:04.661Z,0.44
2018-12-13T06:50:32.593Z,0.46
2018-12-13T06:53:00.130Z,0.48
2018-12-13T06:55:27.768Z,0.46
2018-12-13T06:57:55.693Z,0.44
2018-12-13T07:00:23.329Z,0.44
2018-12-13T07:02:50.929Z,0.44
2018-12-13T07:05:18.963Z,0.43
2018-12-13T07:07:46.632Z,0.42
2018-12-13T07:10:14.289Z,0.39
2018-12-13T07:12:42.213Z,0.38
2018-12-13T07:15:09.833Z,0.38
2018-12-13T07:17:37.423Z,0.37
2018-12-13T07:20:06.645Z,0.35
2018-12-13T07:22:34.300Z,0.35
2018-12-13T07:25:01.904Z,0.36
2018-12-13T07:27:29.905Z,0.34
2018-12-13T07:29:57.508Z,0.35
2018-12-13T07:32:25.094Z,0.35
2018-12-13T07:34:54.384Z,0.34
2018-12-13T07:37:21.997Z,0.32
2018-12-13T07:39:49.581Z,0.31
2018-12-13T07:42:17.532Z,0.29
2018-12-13T07:44:45.237Z,0.28
2018-12-13T07:47:12.830Z,0.30
2018-12-13T07:49:42.788Z,0.32
2018-12-13T07:52:10.429Z,0.32
2018-12-13T07:54:38.982Z,0.33
2018-12-13T07:57:06.991Z,0.38
2018-12-13T07:59:34.605Z,0.40
2018-12-13T08:02:03.688Z,0.44
2018-12-13T08:04:31.731Z,0.48
2018-12-13T08:06:59.364Z,0.52
2018-12-13T08:09:26.993Z,0.55
2018-12-13T08:11:55.666Z,0.58
2018-12-13T08:14:26.278Z,0.59
2018-12-13T08:16:55.180Z,0.61
2018-12-13T08:19:23.224Z,0.65
2018-12-13T08:21:50.824Z,0.73
2018-12-13T08:24:19.418Z,0.83
2018-12-13T08:26:47.824Z,0.90
2018-12-13T08:29:15.693Z,0.96
2018-12-13T08:31:43.272Z,1.01
2018-12-13T08:34:11.238Z,1.03
2018-12-13T08:36:39.697Z,1.05
2018-12-13T08:39:07.907Z,1.07
2018-12-13T08:41:36.606Z,1.09
2018-12-13T08:44:06.252Z,1.10
2018-12-13T08:46:36.664Z,1.11
2018-12-13T08:49:05.078Z,1.12
2018-12-13T08:51:32.695Z,1.14
2018-12-13T08:54:00.326Z,1.18
2018-12-13T08:56:29.001Z,1.23
2018-12-13T08:58:56.616Z,1.27
2018-12-13T09:01:24.224Z,1.30
2018-12-13T09:03:52.104Z,1.34
2018-12-13T09:06:19.756Z,1.36
2018-12-13T09:08:47.370Z,1.35
2018-12-13T09:11:15.290Z,1.38
2018-12-13T09:13:42.843Z,1.38
2018-12-13T09:16:10.430Z,1.42
2018-12-13T09:18:38.313Z,1.46
2018-12-13T09:21:05.858Z,1.50
2018-12-13T09:23:33.442Z,1.54
2018-12-13T09:26:01.573Z,1.59
2018-12-13T09:28:29.631Z,1.66
2018-12-13T09:30:57.162Z,1.74
2018-12-13T09:33:24.671Z,1.82
2018-12-13T09:35:52.231Z,1.90
2018-12-13T09:38:21.293Z,1.98
2018-12-13T09:40:48.872Z,2.10
2018-12-13T09:43:16.670Z,2.29
2018-12-13T09:45:45.251Z,2.77
2018-12-13T09:48:13.694Z,3.58
2018-12-13T09:50:41.468Z,4.51
2018-12-13T09:53:09.462Z,5.42
2018-12-13T09:55:39.987Z,6.18
2018-12-13T09:58:07.546Z,6.86
2018-12-13T10:00:35.495Z,7.44
2018-12-13T10:03:04.063Z,8.00
2018-12-13T10:05:31.674Z,8.42
2018-12-13T10:07:59.595Z,8.78
2018-12-13T10:10:27.754Z,9.14
2018-12-13T10:12:55.358Z,9.59
2018-12-13T10:15:23.217Z,10.02
2018-12-13T10:17:50.791Z,10.05
2018-12-13T10:20:19.144Z,9.68
2018-12-13T10:22:47.022Z,9.10
2018-12-13T10:25:14.576Z,8.51
2018-12-13T10:27:42.114Z,8.30
2018-12-13T10:30:10.022Z,8.47
2018-12-13T10:32:37.570Z,8.67
2018-12-13T10:35:11.344Z,8.73
2018-12-13T10:37:37.299Z,8.84
2018-12-13T10:40:05.834Z,9.16
2018-12-13T10:42:33.756Z,9.52
2018-12-13T10:45:01.770Z,9.85
2018-12-13T10:47:29.332Z,10.08
2018-12-13T10:49:56.871Z,10.37
2018-12-13T10:52:24.716Z,10.61
2018-12-13T10:54:52.275Z,10.75
2018-12-13T10:57:19.806Z,10.78
2018-12-13T10:59:47.694Z,10.50
2018-12-13T11:02:20.251Z,10.18
2018-12-13T11:04:48.431Z,9.99
2018-12-13T11:07:16.399Z,10.06
2018-12-13T11:09:44.175Z,10.39
2018-12-13T11:12:11.711Z,10.81
2018-12-13T11:14:39.780Z,11.19
2018-12-13T11:17:07.314Z,11.33
2018-12-13T11:19:34.875Z,11.35
2018-12-13T11:22:02.916Z,11.51
2018-12-13T11:24:30.464Z,11.46
2018-12-13T11:26:58.892Z,11.38
2018-12-13T11:29:27.795Z,11.29
2018-12-13T11:31:55.861Z,11.06
2018-12-13T11:34:23.411Z,11.10
2018-12-13T11:36:51.326Z,11.25
2018-12-13T11:39:19.642Z,11.13
2018-12-13T11:41:48.647Z,11.00
2018-12-13T11:44:16.550Z,10.89
2018-12-13T11:46:44.083Z,10.76
2018-12-13T11:49:12.237Z,10.80
2018-12-13T11:51:40.270Z,10.58
2018-12-13T11:54:08.534Z,10.42
2018-12-13T11:56:36.078Z,10.35
2018-12-13T11:59:04.044Z,10.12
2018-12-13T12:01:31.561Z,9.58
2018-12-13T12:04:01.487Z,8.91
2018-12-13T12:06:31.239Z,8.28
2018-12-13T12:08:58.773Z,7.73
2018-12-13T12:11:27.140Z,7.18
2018-12-13T12:13:55.074Z,6.87
2018-12-13T12:16:22.673Z,6.71
2018-12-13T12:18:50.238Z,6.45
2018-12-13T12:21:19.842Z,6.28
2018-12-13T12:23:47.552Z,6.18
2018-12-13T12:26:15.087Z,6.09
2018-12-13T12:28:44.898Z,6.11
2018-12-13T12:31:12.476Z,6.21
2018-12-13T12:33:40.626Z,6.24
2018-12-13T12:36:08.622Z,6.16
2018-12-13T12:38:39.732Z,6.04
2018-12-13T12:41:07.285Z,6.06
2018-12-13T12:43:37.717Z,6.07
2018-12-13T12:46:07.465Z,5.94
2018-12-13T12:48:35.890Z,5.75
2018-12-13T12:51:04.566Z,5.50
2018-12-13T12:53:32.133Z,5.20
2018-12-13T12:55:59.698Z,4.93
2018-12-13T12:58:29.633Z,4.80
2018-12-13T13:00:57.524Z,4.67
2018-12-13T13:03:25.078Z,4.51
2018-12-13T13:05:53.058Z,4.45
2018-12-13T13:08:20.824Z,4.60
2018-12-13T13:10:48.375Z,4.71
2018-12-13T13:13:16.257Z,4.71
2018-12-13T13:15:43.827Z,4.79
2018-12-13T13:18:11.376Z,4.93
2018-12-13T13:20:39.355Z,5.05
2018-12-13T13:23:06.916Z,5.08
2018-12-13T13:25:34.447Z,5.05
2018-12-13T13:28:02.463Z,5.00
2018-12-13T13:30:30.034Z,4.97
2018-12-13T13:32:57.588Z,4.95
2018-12-13T13:35:25.561Z,4.89
2018-12-13T13:37:53.632Z,4.83
2018-12-13T13:40:23.630Z,4.74
2018-12-13T13:42:51.564Z,4.69
2018-12-13T13:45:20.767Z,4.61
2018-12-13T13:47:48.335Z,4.56
2018-12-13T13:50:16.299Z,4.46
2018-12-13T13:52:47.453Z,4.30
2018-12-13T13:55:15.006Z,4.11
2018-12-13T13:57:42.862Z,3.94
2018-12-13T14:00:11.751Z,3.83
2018-12-13T14:02:39.642Z,3.73
2018-12-13T14:05:07.511Z,3.68
2018-12-13T14:07:36.463Z,3.61
2018-12-13T14:10:05.666Z,3.58
2018-12-13T14:12:37.261Z,3.55
2018-12-13T14:15:04.786Z,3.51
2018-12-13T14:17:32.327Z,3.51
2018-12-13T14:20:00.203Z,3.56
2018-12-13T14:22:27.761Z,3.58
2018-12-13T14:24:55.313Z,3.52
2018-12-13T14:27:23.219Z,3.42
2018-12-13T14:29:50.821Z,3.34
2018-12-13T14:32:18.442Z,3.25
2018-12-13T14:34:46.759Z,3.17
2018-12-13T14:37:14.551Z,3.07
2018-12-13T14:39:44.517Z,3.03
2018-12-13T14:42:12.155Z,2.99
2018-12-13T14:44:40.295Z,2.95
2018-12-13T14:47:09.550Z,2.94
2018-12-13T14:49:37.095Z,2.96
2018-12-13T14:52:04.619Z,2.94
2018-12-13T14:54:33.458Z,2.90
2018-12-13T14:57:01.735Z,2.87
2018-12-13T14:59:29.350Z,2.78
2018-12-13T15:01:57.284Z,2.73
2018-12-13T15:04:24.876Z,2.70
2018-12-13T15:06:52.419Z,2.65
2018-12-13T15:09:20.536Z,2.61
2018-12-13T15:11:48.062Z,2.56
2018-12-13T15:14:15.760Z,2.50
2018-12-13T15:16:43.676Z,2.45
2018-12-13T15:19:11.236Z,2.40
2018-12-13T15:21:39.490Z,2.35
2018-12-13T15:24:08.362Z,2.30
2018-12-13T15:26:36.598Z,2.25
2018-12-13T15:29:07.306Z,2.21
2018-12-13T15:31:36.427Z,2.20
2018-12-13T15:34:04.607Z,2.20
2018-12-13T15:36:32.162Z,2.20
2018-12-13T15:39:00.424Z,2.20
2018-12-13T15:41:28.843Z,2.20
2018-12-13T15:43:57.264Z,2.22
2018-12-13T15:46:25.209Z,2.21
2018-12-13T15:48:53.314Z,2.20
2018-12-13T15:51:20.875Z,2.23
2018-12-13T15:53:48.811Z,2.26
2018-12-13T15:56:17.234Z,2.30
2018-12-13T15:58:44.798Z,2.33
2018-12-13T16:01:13.660Z,2.39
2018-12-13T16:03:41.229Z,2.44
2018-12-13T16:06:08.792Z,2.50
2018-12-13T16:08:37.325Z,2.56
2018-12-13T16:11:05.434Z,2.61
2018-12-13T16:13:33.010Z,2.67
2018-12-13T16:16:00.933Z,2.70
2018-12-13T16:18:28.466Z,2.75
2018-12-13T16:20:57.479Z,2.77
2018-12-13T16:23:25.658Z,2.79
2018-12-13T16:25:57.874Z,2.81
2018-12-13T16:28:25.421Z,2.82
2018-12-13T16:30:54.350Z,2.83
2018-12-13T16:33:22.498Z,2.81
2018-12-13T16:35:50.050Z,2.84
2018-12-13T16:38:18.506Z,2.85
2018-12-13T16:40:46.055Z,2.88
2018-12-13T16:43:14.269Z,2.89
2018-12-13T16:45:43.924Z,2.90
2018-12-13T16:48:12.710Z,2.90
2018-12-13T16:50:40.976Z,2.90
2018-12-13T16:53:09.514Z,2.90
2018-12-13T16:55:37.358Z,2.91
2018-12-13T16:58:08.568Z,2.89
2018-12-13T17:00:36.491Z,2.85
2018-12-13T17:03:04.703Z,2.82
2018-12-13T17:05:32.570Z,2.81
2018-12-13T17:08:00.464Z,2.75
2018-12-13T17:10:28.885Z,2.72
2018-12-13T17:12:56.477Z,2.71
2018-12-13T17:15:24.487Z,2.72
2018-12-13T17:17:52.271Z,2.74
2018-12-13T17:20:19.783Z,2.76
2018-12-13T17:22:47.751Z,2.77
2018-12-13T17:25:16.205Z,2.80
2018-12-13T17:27:44.752Z,2.81
2018-12-13T17:30:12.581Z,2.80
2018-12-13T17:32:42.567Z,2.82
2018-12-13T17:35:11.809Z,2.79
2018-12-13T17:37:40.450Z,2.79
2018-12-13T17:40:08.657Z,2.76
2018-12-13T17:42:36.902Z,2.78
2018-12-13T17:45:04.874Z,2.78
2018-12-13T17:47:32.398Z,2.79
2018-12-13T17:49:59.910Z,2.78
2018-12-13T17:52:27.898Z,2.79
2018-12-13T17:54:55.434Z,2.81
2018-12-13T17:57:22.996Z,2.82
2018-12-13T17:59:50.955Z,2.84
2018-12-13T18:02:18.546Z,2.84
2018-12-13T18:04:46.286Z,2.84
2018-12-13T18:07:15.215Z,2.84
2018-12-13T18:09:43.658Z,2.84
2018-12-13T18:12:11.199Z,2.83
2018-12-13T18:14:39.214Z,2.80
2018-12-13T18:17:06.772Z,2.79
2018-12-13T18:19:34.311Z,2.81
2018-12-13T18:22:03.712Z,2.80
2018-12-13T18:24:32.555Z,2.80
2018-12-13T18:27:02.302Z,2.81
2018-12-13T18:29:30.539Z,2.81
2018-12-13T18:31:59.713Z,2.79
2018-12-13T18:34:28.584Z,2.69
2018-12-13T18:36:59.095Z,2.56
2018-12-13T18:39:26.693Z,2.45
2018-12-13T18:41:54.898Z,2.36
2018-12-13T18:44:22.827Z,2.29
2018-12-13T18:46:50.575Z,2.23
2018-12-13T18:49:20.010Z,2.20
2018-12-13T18:51:47.846Z,2.14
2018-12-13T18:54:16.214Z,2.09
2018-12-13T18:56:43.769Z,2.01
2018-12-13T18:59:11.971Z,1.95
2018-12-13T19:01:39.505Z,1.90
2018-12-13T19:04:09.412Z,1.84
2018-12-13T19:06:39.799Z,1.77
2018-12-13T19:09:07.480Z,1.73
2018-12-13T19:11:35.597Z,1.67
2018-12-13T19:14:04.205Z,1.62
2018-12-13T19:16:32.505Z,1.60
2018-12-13T19:19:00.208Z,1.55
2018-12-13T19:21:29.353Z,1.49
2018-12-13T19:23:56.958Z,1.47
2018-12-13T19:26:25.443Z,1.45
2018-12-13T19:31:53.936Z,1.40
2018-12-13T19:34:21.820Z,1.35
2018-12-13T19:36:49.503Z,1.31
2018-12-13T19:39:17.102Z,1.29
2018-12-13T19:41:46.642Z,1.30
2018-12-13T19:44:15.731Z,1.30
2018-12-13T19:46:45.906Z,1.31
2018-12-13T19:49:14.039Z,1.30
2018-12-13T19:51:41.554Z,1.28
2018-12-13T19:54:10.094Z,1.27
2018-12-13T19:56:38.058Z,1.26
2018-12-13T19:59:05.586Z,1.23
2018-12-13T20:01:34.091Z,1.22
2018-12-13T20:04:01.641Z,1.19
2018-12-13T20:06:29.299Z,1.19
2018-12-13T20:08:57.283Z,1.19
2018-12-13T20:11:24.842Z,1.18
2018-12-13T20:13:53.750Z,1.19
2018-12-13T20:16:21.722Z,1.18
2018-12-13T20:18:49.251Z,1.18
2018-12-13T20:21:16.787Z,1.19
2018-12-13T20:24:31.457Z,1.18
2018-12-13T20:26:59.016Z,1.15
2018-12-13T20:29:27.989Z,1.10
2018-12-13T20:31:55.545Z,1.05
2018-12-13T20:34:23.080Z,1.03
2018-12-13T20:36:51.035Z,1.04
2018-12-13T20:39:18.624Z,1.02
2018-12-13T20:41:46.146Z,1.00
2018-12-13T20:44:14.492Z,1.00
2018-12-13T20:46:42.009Z,0.99
2018-12-13T20:49:11.248Z,1.02
2018-12-13T20:51:40.131Z,1.03
2018-12-13T20:54:08.655Z,1.09
2018-12-13T20:56:36.193Z,1.19
2018-12-13T20:59:04.184Z,1.31
2018-12-13T21:01:32.593Z,1.41
2018-12-13T21:04:00.139Z,1.52
2018-12-13T21:06:28.002Z,1.63
2018-12-13T21:08:55.544Z,1.71
2018-12-13T21:11:23.213Z,1.79
2018-12-13T21:13:51.166Z,1.85
2018-12-13T21:16:20.345Z,1.91
2018-12-13T21:18:48.607Z,1.94
2018-12-13T21:21:16.606Z,1.97
2018-12-13T21:23:44.160Z,1.99
2018-12-13T21:26:11.782Z,1.94
2018-12-13T21:28:39.633Z,1.88
2018-12-13T21:31:07.169Z,1.78
2018-12-13T21:33:34.690Z,1.71
2018-12-13T21:36:02.778Z,1.65
2018-12-13T21:38:30.415Z,1.64
2018-12-13T21:40:58.551Z,1.61
2018-12-13T21:43:26.102Z,1.62
2018-12-13T21:45:53.626Z,1.67
2018-12-13T21:48:22.357Z,1.76
2018-12-13T21:50:49.883Z,1.83
2018-12-13T21:53:17.524Z,1.89
2018-12-13T21:55:45.415Z,1.95
2018-12-13T21:58:13.218Z,2.00
2018-12-13T22:00:41.479Z,2.03
2018-12-13T22:03:10.378Z,2.02
2018-12-13T22:05:38.019Z,1.99
2018-12-13T22:08:05.538Z,1.93
2018-12-13T22:10:33.459Z,1.86
2018-12-13T22:13:01.064Z,1.76
2018-12-13T22:15:28.618Z,1.67
2018-12-13T22:17:56.193Z,1.60
2018-12-13T22:20:24.223Z,1.53
2018-12-13T22:22:52.797Z,1.49
2018-12-13T22:25:20.359Z,1.44
2018-12-13T22:27:48.217Z,1.39
2018-12-13T22:30:15.820Z,1.39
2018-12-13T22:32:43.375Z,1.42
2018-12-13T22:35:10.928Z,1.49
2018-12-13T22:37:38.488Z,1.58
2018-12-13T22:40:06.042Z,1.62
2018-12-13T22:42:35.075Z,1.65
2018-12-13T22:45:02.687Z,1.66
2018-12-13T22:47:30.231Z,1.69
2018-12-13T22:49:57.787Z,1.73
2018-12-13T22:52:25.662Z,1.74
2018-12-13T22:54:53.186Z,1.72
2018-12-13T22:57:20.714Z,1.68
2018-12-13T22:59:48.639Z,1.64
2018-12-13T23:02:19.330Z,1.61
2018-12-13T23:04:47.519Z,1.59
2018-12-13T23:07:15.403Z,1.55
2018-12-13T23:09:42.928Z,1.49
2018-12-13T23:12:10.492Z,1.42
2018-12-13T23:14:38.266Z,1.35
2018-12-13T23:17:06.243Z,1.28
2018-12-13T23:19:33.834Z,1.20
2018-12-13T23:22:01.403Z,1.12
2018-12-13T23:24:28.915Z,1.04
2018-12-13T23:26:56.924Z,0.97
2018-12-13T23:29:24.451Z,0.92
2018-12-13T23:31:52.007Z,0.86
2018-12-13T23:34:20.915Z,0.81
2018-12-13T23:36:48.468Z,0.78
2018-12-13T23:39:16.334Z,0.79
2018-12-13T23:41:43.916Z,0.81
2018-12-13T23:44:11.878Z,0.81
2018-12-13T23:46:39.434Z,0.84
2018-12-13T23:49:06.975Z,0.89
2018-12-13T23:51:34.535Z,0.94
2018-12-13T23:54:02.446Z,0.98
2018-12-13T23:56:30.012Z,1.04
2018-12-13T23:58:57.914Z,1.09
